Latest Coastal Weather Observations for Roebourne Airport

IDW60701

Issued at 9:23 pm WST Tuesday 19 September 2017 (issued every 10 minutes, with the page automatically refreshed every 10 minutes)

About coastal observations | Map of coastal stations | Coastal observations for WA | Marine services | Other Formats
Station Details ID: 004090 Name: ROEBOURNE AERO Lat: -20.76 Lon: 117.16 Height: 10.7 m
Data from the previous 72 hours. | See also: Recent months at Roebourne Airport
Date/Time
WST
Temp
°C
Wind Pressure Rain since
9am
mm
Weather Cloud Vis
km
Sea
Height
m
Swell
Dir  Spd
kts
Gust
kts
hPa Trend Height
m
Period
s
Dir
19/09:00pm 26.4 SW 7 9 1014.9 - 0.0 - - - - - - -
19/08:30pm 27.4 WSW 8 12 1014.8 - 0.0 - - - - - - -
19/08:00pm 27.5 WSW 7 10 1014.6 - 0.0 - - - - - - -
19/07:30pm 27.6 W 5 7 1014.3 - 0.0 - - - - - - -
19/07:00pm 28.2 NW 7 8 1013.9 - 0.0 - - - - - - -
19/06:30pm 29.4 NW 7 10 1013.5 - 0.0 - - - - - - -
19/06:00pm 31.2 NW 9 11 1013.3 - 0.0 - - - - - - -
19/05:30pm 33.3 N 11 14 1013.0 - 0.0 - - - - - - -
19/05:00pm 35.0 NNW 11 14 1012.8 - 0.0 - - - - - - -
19/04:30pm 36.9 N 13 16 1012.9 - 0.0 - - - - - - -
19/04:00pm 37.5 N 13 15 1013.0 - 0.0 - - - - - - -
19/03:30pm 37.4 NNE 14 17 1013.3 - 0.0 - - - - - - -
19/03:00pm 37.7 NNE 13 16 1013.5 - 0.0 - - - - - - -
19/02:30pm 38.2 NNE 13 17 1013.7 - 0.0 - - - - - - -
19/02:00pm 38.2 NE 15 18 1013.9 - 0.0 - - - - - - -
19/01:30pm 37.7 NE 15 19 1014.3 - 0.0 - - - - - - -
19/01:00pm 38.0 NE 16 21 1014.8 - 0.0 - - - - - - -
19/12:30pm 37.7 NE 16 20 1015.2 - 0.0 - - - - - - -
19/12:00pm 37.7 NE 15 19 1015.7 - 0.0 - - - - - - -
19/11:30am 38.3 NE 13 19 1016.1 - 0.0 - - - - - - -
19/11:00am 38.3 ENE 13 17 1016.5 - 0.0 - - - - - - -
19/10:30am 37.7 E 12 16 1016.9 - 0.0 - - - - - - -
19/10:00am 37.0 ESE 12 15 1017.1 - 0.0 - - - - - - -
19/09:30am 36.2 SE 8 11 1017.2 - 0.0 - - - - - - -
19/09:00am 34.6 SE 7 10 1017.3 - 0.0 - - - - - - -
19/08:30am 31.2 SE 3 5 1017.4 - 0.0 - - - - - - -
19/08:00am 28.0 S 3 4 1017.3 - 0.0 - - - - - - -
19/07:30am 25.0 SW 3 4 1017.0 - 0.0 - - - - - - -
19/07:00am 20.1 W 3 4 1016.8 - 0.0 - - - - - - -
19/06:30am 16.9 SSW 4 5 1016.5 - 0.0 - - - - - - -
19/06:00am 16.2 SE 3 4 1016.2 - 0.0 - - - - - - -
19/05:30am 15.9 ESE 4 6 1016.0 - 0.0 - - - - - - -
19/05:00am 16.1 CALM 0 0 1015.7 - 0.0 - - - - - - -
19/04:30am 17.2 CALM 0 3 1015.6 - 0.0 - - - - - - -
19/04:00am 18.3 SSW 3 4 1015.5 - 0.0 - - - - - - -
19/03:30am 17.6 WSW 3 5 1015.5 - 0.0 - - - - - - -
19/03:00am 18.2 CALM 0 0 1015.6 - 0.0 - - - - - - -
19/02:30am 19.9 WSW 7 8 1015.8 - 0.0 - - - - - - -
19/02:00am 18.6 SW 4 6 1016.1 - 0.0 - - - - - - -
19/01:30am 18.8 SSW 4 8 1016.5 - 0.0 - - - - - - -
19/01:00am 18.2 SW 4 7 1016.4 - 0.0 - - - - - - -
19/12:30am 19.0 WSW 4 7 1016.7 - 0.0 - - - - - - -
19/12:00am 20.4 SW 5 6 1016.8 - 0.0 - - - - - - -
 
Date/Time
WST
Temp
°C
Wind Pressure Rain since
9am
mm
Weather Cloud Vis
km
Sea
Height
m
Swell
Dir  Spd
kts
Gust
kts
hPa Trend Height
m
Period
s
Dir
18/11:30pm 20.6 WNW 5 6 1017.0 - 0.0 - - - - - - -
18/11:00pm 21.3 NW 6 7 1017.2 - 0.0 - - - - - - -
18/10:30pm 22.2 WNW 5 7 1017.3 - 0.0 - - - - - - -
18/10:00pm 25.2 SW 8 10 1017.1 - 0.0 - - - - - - -
18/09:30pm 24.1 SW 7 9 1017.1 - 0.0 - - - - - - -
18/09:00pm 22.8 S 5 7 1016.9 - 0.0 - - - - - - -
18/08:30pm 25.1 SW 6 7 1016.6 - 0.0 - - - - - - -
18/08:00pm 26.1 WSW 6 7 1016.4 - 0.0 - - - - - - -
18/07:30pm 26.2 NW 6 7 1016.0 - 0.0 - - - - - - -
18/07:00pm 27.5 WSW 5 7 1015.6 - 0.0 - - - - - - -
18/06:30pm 28.3 NW 6 7 1015.1 - 0.0 - - - - - - -
18/06:00pm 30.5 NW 7 9 1014.8 - 0.0 - - - - - - -
18/05:30pm 32.6 NNW 10 13 1014.6 - 0.0 - - - - - - -
18/05:00pm 33.7 NNW 11 14 1014.3 - 0.0 - - - - - - -
18/04:30pm 34.5 NNW 14 16 1014.3 - 0.0 - - - - - - -
18/04:00pm 35.6 NNW 14 17 1014.4 - 0.0 - - - - - - -
18/03:30pm 37.4 N 13 17 1014.5 - 0.0 - - - - - - -
18/03:00pm 37.2 N 13 15 1014.6 - 0.0 - - - - - - -
18/02:30pm 37.7 NNE 12 15 1014.8 - 0.0 - - - - - - -
18/02:00pm 37.7 NNE 11 14 1015.0 - 0.0 - - - - - - -
18/01:30pm 38.3 NNE 11 15 1015.3 - 0.0 - - - - - - -
18/01:00pm 38.4 NE 11 15 1015.6 - 0.0 - - - - - - -
18/12:30pm 38.2 NE 11 14 1016.1 - 0.0 - - - - - - -
18/12:00pm 37.6 NE 11 16 1016.4 - 0.0 - - - - - - -
18/11:30am 37.1 ENE 11 15 1016.7 - 0.0 - - - - - - -
18/11:00am 37.2 ENE 11 16 1016.9 - 0.0 - - - - - - -
18/10:30am 36.2 ESE 10 16 1017.3 - 0.0 - - - - - - -
18/10:00am 35.3 ESE 13 16 1017.5 - 0.0 - - - - - - -
18/09:30am 34.2 ESE 15 19 1017.7 - 0.0 - - - - - - -
18/09:00am 32.9 ESE 14 18 1017.8 - 0.0 - - - - - - -
18/08:30am 31.4 SE 9 15 1017.8 - 0.0 - - - - - - -
18/08:00am 27.8 SE 3 5 1017.6 - 0.0 - - - - - - -
18/07:30am 23.9 CALM 0 0 1017.5 - 0.0 - - - - - - -
18/07:00am 19.6 S 3 5 1017.1 - 0.0 - - - - - - -
18/06:30am 16.3 SSW 4 5 1016.7 - 0.0 - - - - - - -
18/06:00am 16.1 SSW 3 6 1016.5 - 0.0 - - - - - - -
18/05:30am 15.6 CALM 0 0 1016.2 - 0.0 - - - - - - -
18/05:00am 16.8 CALM 0 0 1016.0 - 0.0 - - - - - - -
18/04:30am 17.1 SSW 3 4 1015.9 - 0.0 - - - - - - -
18/04:00am 18.5 WSW 4 6 1015.5 - 0.0 - - - - - - -
18/03:30am 18.3 SSW 6 9 1015.6 - 0.0 - - - - - - -
18/03:00am 17.9 SW 6 7 1015.3 - 0.0 - - - - - - -
18/02:30am 17.5 WSW 3 5 1015.4 - 0.0 - - - - - - -
18/02:00am 17.8 CALM 0 0 1015.7 - 0.0 - - - - - - -
18/01:30am 18.2 CALM 0 1 1015.8 - 0.0 - - - - - - -
18/01:00am 18.7 E 3 6 1016.1 - 0.0 - - - - - - -
18/12:30am 19.0 WSW 3 4 1016.6 - 0.0 - - - - - - -
18/12:00am 19.8 CALM 0 0 1016.7 - 0.0 - - - - - - -
 
Date/Time
WST
Temp
°C
Wind Pressure Rain since
9am
mm
Weather Cloud Vis
km
Sea
Height
m
Swell
Dir  Spd
kts
Gust
kts
hPa Trend Height
m
Period
s
Dir
17/11:30pm 20.3 ENE 3 4 1016.9 - 0.0 - - - - - - -
17/11:00pm 20.9 SSE 4 5 1017.0 - 0.0 - - - - - - -
17/10:30pm 21.2 S 1 5 1017.3 - 0.0 - - - - - - -
17/10:00pm 22.9 W 5 5 1017.1 - 0.0 - - - - - - -
17/09:30pm 23.7 SW 1 3 1017.4 - 0.0 - - - - - - -
17/09:00pm 24.6 CALM 0 0 1017.5 - 0.0 - - - - - - -
17/08:30pm 26.0 W 7 8 1017.1 - 0.0 - - - - - - -
17/08:00pm 26.1 W 8 10 1016.5 - 0.0 - - - - - - -
17/07:30pm 26.6 W 9 13 1016.1 - 0.0 - - - - - - -
17/07:00pm 26.7 WNW 10 13 1015.9 - 0.0 - - - - - - -
17/06:30pm 26.8 NW 8 9 1015.2 - 0.0 - - - - - - -
17/06:00pm 28.1 NNW 9 11 1014.5 - 0.0 - - - - - - -
17/05:30pm 28.7 NNW 13 16 1014.1 - 0.0 - - - - - - -
17/05:00pm 29.8 N 14 17 1013.6 - 0.0 - - - - - - -
17/04:30pm 31.4 N 13 17 1013.4 - 0.0 - - - - - - -
17/04:00pm 32.1 N 15 19 1013.3 - 0.0 - - - - - - -
17/03:30pm 33.2 N 16 19 1013.5 - 0.0 - - - - - - -
17/03:00pm 34.5 NNE 14 17 1013.6 - 0.0 - - - - - - -
17/02:30pm 35.0 NNE 11 15 1013.8 - 0.0 - - - - - - -
17/02:00pm 35.6 NNE 11 15 1013.9 - 0.0 - - - - - - -
17/01:30pm 37.1 NNE 13 17 1014.4 - 0.0 - - - - - - -
17/01:00pm 36.5 NNE 11 15 1015.0 - 0.0 - - - - - - -
17/12:30pm 37.0 NE 9 13 1015.4 - 0.0 - - - - - - -
17/12:00pm 36.5 NE 10 14 1015.8 - 0.0 - - - - - - -
17/11:30am 36.4 ENE 9 12 1016.2 - 0.0 - - - - - - -
17/11:00am 36.3 ENE 10 14 1016.6 - 0.0 - - - - - - -
17/10:30am 35.8 ESE 12 17 1017.0 - 0.0 - - - - - - -
17/10:00am 35.3 E 13 18 1017.2 - 0.0 - - - - - - -
17/09:30am 34.6 ESE 13 17 1017.2 - 0.0 - - - - - - -
17/09:00am 33.7 SE 13 17 1017.2 - 0.0 - - - - - - -
17/08:30am 31.5 SSE 7 9 1017.2 - 0.0 - - - - - - -
17/08:00am 27.1 SSW 6 7 1017.1 - 0.0 - - - - - - -
17/07:30am 23.5 SSW 7 8 1016.9 - 0.0 - - - - - - -
17/07:00am 19.2 SSW 8 9 1016.6 - 0.0 - - - - - - -
17/06:30am 17.1 SSW 5 9 1016.3 - 0.0 - - - - - - -
17/06:00am 16.9 WNW 4 6 1016.1 - 0.0 - - - - - - -
17/05:30am 16.8 SW 4 5 1016.2 - 0.0 - - - - - - -
17/05:00am 17.9 WSW 5 6 1015.9 - 0.0 - - - - - - -
17/04:30am 16.8 S 5 7 1015.5 - 0.0 - - - - - - -
17/04:00am 17.1 CALM 0 0 1015.2 - 0.0 - - - - - - -
17/03:30am 18.2 CALM 0 0 1015.3 - 0.0 - - - - - - -
17/03:00am 18.2 CALM 0 0 1015.5 - 0.0 - - - - - - -
17/02:30am 20.4 W 5 5 1015.7 - 0.0 - - - - - - -
17/02:00am 21.9 WSW 3 4 1015.9 - 0.0 - - - - - - -
17/01:30am 22.0 WSW 5 7 1016.1 - 0.0 - - - - - - -
17/01:00am 21.7 WSW 4 6 1016.3 - 0.0 - - - - - - -
17/12:30am 22.6 WSW 6 6 1016.5 - 0.0 - - - - - - -
17/12:00am 22.5 W 2 4 1017.0 - 0.0 - - - - - - -
 
Date/Time
WST
Temp
°C
Wind Pressure Rain since
9am
mm
Weather Cloud Vis
km
Sea
Height
m
Swell
Dir  Spd
kts
Gust
kts
hPa Trend Height
m
Period
s
Dir
16/11:30pm 22.5 SW 7 9 1016.9 - 0.0 - - - - - - -
16/11:00pm 22.0 SW 6 7 1016.9 - 0.0 - - - - - - -
16/10:30pm 23.1 SW 3 4 1017.0 - 0.0 - - - - - - -
16/10:00pm 24.1 WSW 5 7 1017.3 - 0.0 - - - - - - -
16/09:30pm 24.6 WSW 6 8 1017.2 - 0.0 - - - - - - -

Other Formats:

Comma delimited format used in spreadsheet applications
http://www.bom.gov.au/fwo/IDW60701/IDW60701.94308.axf

JavaScript Object Notation format (JSON) in row-major order
http://www.bom.gov.au/fwo/IDW60701/IDW60701.94308.json